Dayton, Idaho
Current Conditions -  °F | °C
As of 10:51 AM on Tuesday 21 Oct 2014 (Local Time) from KLGU Reporting Station
Few Clouds Few Clouds  
Wind Chill: 52°   Ceiling: Unl
Heat Index: 52°   Visibility: 10mi
Dew Point: 41°   Wind: 24mph
Humidity: 66%   Direction: 360°N
Pressure: 29.97"   Gusts: 30mph
Location:  42.11°N, 111.99°W
Report Text: KLGU 211651Z AUTO 36021G26KT 10SM FEW065 FEW085 11/05 A2997 RMK AO2 PK WND 36028/1607 WSHFT 1556 SLP127 T01110050 TSNO
Loading
Personal Weather Stations






























Interactive Weather Map
Tropical Storm Tracking
New forecast layout! Learn more

10-Day Weather Forecast

Advertisements
Track Severe Weather on mobile